Akvile — LYJM — position and weather

sailwx.info

Track history (hours):
 
Tides and Currents Weather Stations Pressure Air Temp Water Temp Dewpoint Dewpoint Depression Visibility Wind Speed Wind Dir Waves Ship Positions

Akvile

Last reported at 2014-Aug-01 21:33 UTC. Time now 2014-Aug-01 22:32 UTC.
Position N 34°41' E 011°37'.

Length 103 m; draft 5.1 m.

Type: Cargo ship. MMSI: 277073000.

Date/timePositionNaut miles runAvg speedWind from/ knotsBaromVisibWave heightAir tempDewpointWater temp
2014-Aug-01 21:33N 34°41' E 011°37'10 9.9
2014-Aug-01 20:30N 34°48' E 011°47'9 8.3
2014-Aug-01 19:27N 34°56' E 011°47'910.0
2014-Aug-01 18:32N 35°04' E 011°41'1010.1
2014-Aug-01 17:33N 35°13' E 011°35'1110.6
2014-Aug-01 16:33N 35°22' E 011°28'1110.5
2014-Aug-01 15:34N 35°31' E 011°22'1010.5
2014-Aug-01 14:33N 35°40' E 011°15'1110.4
2014-Aug-01 13:32N 35°49' E 011°08'12 9.2
2014-Aug-01 12:15N 35°51' E 010°54'  
2014-Jul-29 20:18N 35°50' E 010°41'0 0.2
2014-Jul-29 19:27N 35°50' E 010°41'0 0.0
2014-Jul-29 18:33N 35°50' E 010°41'0 0.1
2014-Jul-29 17:30N 35°51' E 010°41'0 0.1
2014-Jul-29 16:33N 35°50' E 010°41'0 0.0
2014-Jul-29 15:33N 35°50' E 010°41'0 0.0
2014-Jul-29 14:33N 35°50' E 010°41'0 0.0
2014-Jul-29 13:33N 35°50' E 010°41'0 0.1
2014-Jul-29 12:33N 35°51' E 010°41'0 0.0
2014-Jul-29 11:33N 35°51' E 010°41'0 0.0
2014-Jul-29 03:12N 35°50' E 010°41'0 0.0
2014-Jul-29 00:06N 35°50' E 010°41'0 0.0
2014-Jul-28 15:31N 35°50' E 010°41'0 0.0
2014-Jul-28 00:06N 35°50' E 010°41'24 9.2
2014-Jul-27 21:32N 36°11' E 010°56'42510.1
2014-Jul-26 03:33N 43°12' E 009°42'19 9.5
2014-Jul-26 01:30N 43°31' E 009°46'9 9.8
2014-Jul-26 00:33N 43°40' E 009°48'1010.0
2014-Jul-25 23:33N 43°50' E 009°50'1110.6
2014-Jul-25 22:33N 44°01' E 009°52'5 5.3
2014-Jul-25 21:33N 44°06' E 009°51'0 0.0
2014-Jul-25 20:33N 44°06' E 009°51'0 0.0
2014-Jul-25 19:33N 44°06' E 009°51'0 0.0
2014-Jul-25 18:33N 44°06' E 009°51'0 0.0
2014-Jul-25 17:33N 44°06' E 009°51'0 0.0
2014-Jul-25 16:33N 44°06' E 009°51'1 0.8
2014-Jul-25 15:33N 44°07' E 009°50'0 0.0
2014-Jul-25 14:33N 44°07' E 009°50'0 0.0
2014-Jul-25 13:33N 44°07' E 009°50'0 0.0
2014-Jul-25 12:33N 44°07' E 009°50'0 0.0
2014-Jul-25 11:33N 44°07' E 009°50'0 0.0
2014-Jul-25 10:33N 44°07' E 009°50'0 0.0
2014-Jul-25 09:33N 44°07' E 009°50'0 0.0
2014-Jul-25 08:33N 44°07' E 009°50'0 0.0
2014-Jul-25 07:33N 44°07' E 009°50'0 0.0
2014-Jul-25 06:33N 44°07' E 009°50'0 0.0
2014-Jul-25 05:33N 44°07' E 009°50'0 0.0
2014-Jul-25 04:33N 44°07' E 009°50'0 0.0
2014-Jul-25 03:33N 44°07' E 009°50'0 0.0
2014-Jul-25 02:33N 44°07' E 009°50'0 0.0
2014-Jul-25 01:33N 44°07' E 009°50'0 0.0
2014-Jul-25 00:33N 44°07' E 009°50'0 0.0
2014-Jul-24 23:30N 44°07' E 009°50'0 0.0
2014-Jul-24 22:33N 44°07' E 009°50'0 0.0
2014-Jul-24 21:33N 44°07' E 009°50'0 0.0
2014-Jul-24 20:33N 44°07' E 009°50'0 0.0
2014-Jul-24 19:33N 44°07' E 009°50'0 0.0
2014-Jul-24 18:33N 44°07' E 009°50'0 0.0
2014-Jul-24 17:33N 44°07' E 009°50'5 5.5
2014-Jul-24 16:33N 44°02' E 009°54'1111.5
2014-Jul-24 15:33N 43°50' E 009°52'1212.0
2014-Jul-24 14:33N 43°39' E 009°49'1211.6
2014-Jul-24 13:33N 43°27' E 009°46'1211.5
2014-Jul-24 12:33N 43°16' E 009°43'10711.3
2014-Jul-24 03:08N 41°31' E 010°08'2811.0
2014-Jul-24 00:33N 41°03' E 010°16'3310.9
2014-Jul-23 21:33N 40°31' E 010°23'  
Track history (hours):
 
Tides and Currents Weather Stations Pressure Air Temp Water Temp Dewpoint Dewpoint Depression Visibility Wind Speed Wind Dir Waves Ship Positions

Akvile

Last reported at 2014-Aug-01 21:33 UTC. Time now 2014-Aug-01 22:32 UTC.
Position N 34°41' E 011°37'.

Length 103 m; draft 5.1 m.

Type: Cargo ship. MMSI: 277073000.

Date/timePositionNaut miles runAvg speedWind from/ knotsBaromVisibWave heightAir tempDewpointWater temp
2014-Aug-01 21:33N 34°41' E 011°37'10 9.9
2014-Aug-01 20:30N 34°48' E 011°47'9 8.3
2014-Aug-01 19:27N 34°56' E 011°47'910.0
2014-Aug-01 18:32N 35°04' E 011°41'1010.1
2014-Aug-01 17:33N 35°13' E 011°35'1110.6
2014-Aug-01 16:33N 35°22' E 011°28'1110.5
2014-Aug-01 15:34N 35°31' E 011°22'1010.5
2014-Aug-01 14:33N 35°40' E 011°15'1110.4
2014-Aug-01 13:32N 35°49' E 011°08'12 9.2
2014-Aug-01 12:15N 35°51' E 010°54'  
2014-Jul-29 20:18N 35°50' E 010°41'0 0.2
2014-Jul-29 19:27N 35°50' E 010°41'0 0.0
2014-Jul-29 18:33N 35°50' E 010°41'0 0.1
2014-Jul-29 17:30N 35°51' E 010°41'0 0.1
2014-Jul-29 16:33N 35°50' E 010°41'0 0.0
2014-Jul-29 15:33N 35°50' E 010°41'0 0.0
2014-Jul-29 14:33N 35°50' E 010°41'0 0.0
2014-Jul-29 13:33N 35°50' E 010°41'0 0.1
2014-Jul-29 12:33N 35°51' E 010°41'0 0.0
2014-Jul-29 11:33N 35°51' E 010°41'0 0.0
2014-Jul-29 03:12N 35°50' E 010°41'0 0.0
2014-Jul-29 00:06N 35°50' E 010°41'0 0.0
2014-Jul-28 15:31N 35°50' E 010°41'0 0.0
2014-Jul-28 00:06N 35°50' E 010°41'24 9.2
2014-Jul-27 21:32N 36°11' E 010°56'42510.1
2014-Jul-26 03:33N 43°12' E 009°42'19 9.5
2014-Jul-26 01:30N 43°31' E 009°46'9 9.8
2014-Jul-26 00:33N 43°40' E 009°48'1010.0
2014-Jul-25 23:33N 43°50' E 009°50'1110.6
2014-Jul-25 22:33N 44°01' E 009°52'5 5.3
2014-Jul-25 21:33N 44°06' E 009°51'0 0.0
2014-Jul-25 20:33N 44°06' E 009°51'0 0.0
2014-Jul-25 19:33N 44°06' E 009°51'0 0.0
2014-Jul-25 18:33N 44°06' E 009°51'0 0.0
2014-Jul-25 17:33N 44°06' E 009°51'0 0.0
2014-Jul-25 16:33N 44°06' E 009°51'1 0.8
2014-Jul-25 15:33N 44°07' E 009°50'0 0.0
2014-Jul-25 14:33N 44°07' E 009°50'0 0.0
2014-Jul-25 13:33N 44°07' E 009°50'0 0.0
2014-Jul-25 12:33N 44°07' E 009°50'0 0.0
2014-Jul-25 11:33N 44°07' E 009°50'0 0.0
2014-Jul-25 10:33N 44°07' E 009°50'0 0.0
2014-Jul-25 09:33N 44°07' E 009°50'0 0.0
2014-Jul-25 08:33N 44°07' E 009°50'0 0.0
2014-Jul-25 07:33N 44°07' E 009°50'0 0.0
2014-Jul-25 06:33N 44°07' E 009°50'0 0.0
2014-Jul-25 05:33N 44°07' E 009°50'0 0.0
2014-Jul-25 04:33N 44°07' E 009°50'0 0.0
2014-Jul-25 03:33N 44°07' E 009°50'0 0.0
2014-Jul-25 02:33N 44°07' E 009°50'0 0.0
2014-Jul-25 01:33N 44°07' E 009°50'0 0.0
2014-Jul-25 00:33N 44°07' E 009°50'0 0.0
2014-Jul-24 23:30N 44°07' E 009°50'0 0.0
2014-Jul-24 22:33N 44°07' E 009°50'0 0.0
2014-Jul-24 21:33N 44°07' E 009°50'0 0.0
2014-Jul-24 20:33N 44°07' E 009°50'0 0.0
2014-Jul-24 19:33N 44°07' E 009°50'0 0.0
2014-Jul-24 18:33N 44°07' E 009°50'0 0.0
2014-Jul-24 17:33N 44°07' E 009°50'5 5.5
2014-Jul-24 16:33N 44°02' E 009°54'1111.5
2014-Jul-24 15:33N 43°50' E 009°52'1212.0
2014-Jul-24 14:33N 43°39' E 009°49'1211.6
2014-Jul-24 13:33N 43°27' E 009°46'1211.5
2014-Jul-24 12:33N 43°16' E 009°43'10711.3
2014-Jul-24 03:08N 41°31' E 010°08'2811.0
2014-Jul-24 00:33N 41°03' E 010°16'3310.9
2014-Jul-23 21:33N 40°31' E 010°23'  

Dump ship's entire track history